Time;durP1;ratioP1;P1;durP2;ratioP2;P2;SDS_P1;SDS_P2;PMS_P1;PMS_P2;Temp;Humidity;BMP_temperature;BMP_pressure;BME280_temperature;BME280_humidity;BME280_pressure;Samples;Min_cycle;Max_cycle;Signal;HPM_P1;HPM_P2
2023/12/17 00:00:38;;;;;;;;;;;9.10;86.20;;;;;;5088541;23;19995;-83
2023/12/17 00:03:06;;;;;;;;;;;9.10;86.20;;;;;;5109710;23;19912;-82
2023/12/17 00:05:26;;;;;;;;;;;9.10;86.20;;;;;;5087642;23;19908;-83
2023/12/17 00:07:47;;;;;;;;;;;9.10;86.30;;;;;;5089184;23;19964;-83
2023/12/17 00:10:10;;;;;;;;;;;9.20;86.40;;;;;;5110750;23;20206;-84
2023/12/17 00:12:31;;;;;;;;;;;9.10;86.30;;;;;;5110797;23;19904;-84
2023/12/17 00:14:51;;;;;;;;;;;9.20;86.40;;;;;;5110764;23;20511;-84
2023/12/17 00:17:35;;;;;;;;;;;9.10;86.40;;;;;;5108481;23;19909;-84
2023/12/17 00:19:39;;;;;;;;;;;9.10;86.20;;;;;;5075630;23;19916;-83
2023/12/17 00:21:42;;;;;;;;;;;9.10;86.30;;;;;;5111478;23;20245;-84
2023/12/17 00:23:43;;;;;;;;;;;9.10;86.30;;;;;;5110155;23;20389;-84
2023/12/17 00:26:04;;;;;;;;;;;9.10;86.20;;;;;;5107150;23;19936;-84
2023/12/17 00:28:07;;;;;;;;;;;9.10;86.20;;;;;;5084759;23;19916;-83
2023/12/17 00:30:28;;;;;;;;;;;9.10;86.20;;;;;;5110291;23;19908;-85
2023/12/17 00:32:48;;;;;;;;;;;9.20;86.20;;;;;;5112809;23;20022;-83
2023/12/17 00:35:09;;;;;;;;;;;9.20;86.20;;;;;;5109193;23;19973;-83
2023/12/17 00:37:14;;;;;;;;;;;9.20;86.20;;;;;;5111612;23;19938;-84
2023/12/17 00:39:35;;;;;;;;;;;9.20;86.20;;;;;;5091726;23;19930;-84
2023/12/17 00:42:00;;;;;;;;;;;9.20;86.20;;;;;;5111795;23;20551;-84
2023/12/17 00:44:07;;;;;;;;;;;9.10;86.10;;;;;;5115096;23;19923;-85
2023/12/17 00:46:30;;;;;;;;;;;9.10;86.10;;;;;;5111999;23;19982;-84
2023/12/17 00:48:53;;;;;;;;;;;9.20;86.10;;;;;;5113430;23;19904;-83
2023/12/17 00:51:17;;;;;;;;;;;9.10;86.10;;;;;;5112903;23;19975;-85
2023/12/17 00:53:38;;;;;;;;;;;9.20;86.20;;;;;;5114232;23;19981;-84
2023/12/17 00:55:59;;;;;;;;;;;9.20;86.20;;;;;;5091082;23;19983;-83
2023/12/17 00:58:19;;;;;;;;;;;9.20;86.20;;;;;;5111828;23;19920;-83
2023/12/17 01:00:40;;;;;;;;;;;9.20;86.20;;;;;;5113818;23;19940;-85
2023/12/17 01:03:00;;;;;;;;;;;9.20;86.20;;;;;;5087811;23;19912;-82
2023/12/17 01:05:21;;;;;;;;;;;9.20;86.20;;;;;;5113008;23;19904;-84
2023/12/17 01:07:41;;;;;;;;;;;9.20;86.20;;;;;;5113205;23;20030;-85
2023/12/17 01:10:02;;;;;;;;;;;9.20;86.90;;;;;;5090681;23;19908;-85
2023/12/17 01:12:22;;;;;;;;;;;9.20;86.90;;;;;;5111954;23;19904;-85
2023/12/17 01:14:43;;;;;;;;;;;9.20;86.10;;;;;;5090772;23;19926;-84
2023/12/17 01:17:04;;;;;;;;;;;9.20;86.20;;;;;;5090703;23;19931;-84
2023/12/17 01:19:24;;;;;;;;;;;9.30;86.20;;;;;;5091750;23;19993;-83
2023/12/17 01:21:45;;;;;;;;;;;9.20;86.10;;;;;;5114670;23;19908;-84
2023/12/17 01:24:05;;;;;;;;;;;9.20;86.10;;;;;;5113078;23;19927;-84
2023/12/17 01:26:29;;;;;;;;;;;9.20;86.10;;;;;;5112021;23;19928;-83
2023/12/17 01:28:53;;;;;;;;;;;9.20;86.10;;;;;;5112004;23;19908;-85
2023/12/17 01:31:13;;;;;;;;;;;9.20;86.10;;;;;;5112796;23;19908;-84
2023/12/17 01:33:34;;;;;;;;;;;9.30;86.10;;;;;;5089034;23;19913;-85
2023/12/17 01:35:54;;;;;;;;;;;9.30;86.20;;;;;;5090954;23;19904;-84
2023/12/17 01:38:15;;;;;;;;;;;9.30;86.20;;;;;;5110742;23;19912;-85
2023/12/17 01:40:15;;;;;;;;;;;9.20;86.00;;;;;;5110017;23;19909;-84
2023/12/17 01:42:16;;;;;;;;;;;9.20;86.00;;;;;;5110805;23;19904;-84
2023/12/17 01:44:36;;;;;;;;;;;9.30;86.10;;;;;;5091420;23;19905;-84
2023/12/17 01:46:57;;;;;;;;;;;9.30;85.90;;;;;;5110423;23;19908;-84
2023/12/17 01:49:18;;;;;;;;;;;9.30;86.00;;;;;;5112372;23;19990;-84
2023/12/17 01:51:39;;;;;;;;;;;9.30;86.10;;;;;;5092660;23;19983;-85
2023/12/17 01:54:00;;;;;;;;;;;9.30;86.00;;;;;;5113336;23;19962;-84
2023/12/17 01:56:21;;;;;;;;;;;9.30;85.80;;;;;;5112592;23;19912;-83
2023/12/17 01:58:21;;;;;;;;;;;9.20;85.80;;;;;;5084053;23;19940;-84
2023/12/17 02:00:46;;;;;;;;;;;9.30;85.90;;;;;;5113123;23;19916;-85
2023/12/17 02:03:06;;;;;;;;;;;9.30;85.90;;;;;;5113802;23;19978;-84
2023/12/17 02:05:21;;;;;;;;;;;9.40;85.90;;;;;;5088606;23;20348;-85
2023/12/17 02:07:42;;;;;;;;;;;9.40;85.90;;;;;;5115085;23;19927;-83
2023/12/17 02:10:02;;;;;;;;;;;9.30;85.70;;;;;;5114574;23;19935;-84
2023/12/17 02:12:25;;;;;;;;;;;9.30;85.80;;;;;;5114021;23;19908;-83
2023/12/17 02:14:45;;;;;;;;;;;9.30;85.70;;;;;;5115669;23;19908;-84
2023/12/17 02:17:01;;;;;;;;;;;9.30;85.70;;;;;;5115300;23;19908;-84
2023/12/17 02:19:02;;;;;;;;;;;9.40;85.70;;;;;;5114912;23;19916;-86
2023/12/17 02:21:03;;;;;;;;;;;9.40;85.70;;;;;;5114911;23;19951;-85
2023/12/17 02:23:05;;;;;;;;;;;9.40;85.70;;;;;;5116011;23;19913;-84
2023/12/17 02:25:06;;;;;;;;;;;9.40;85.70;;;;;;5114419;23;19943;-84
2023/12/17 02:27:06;;;;;;;;;;;9.40;85.70;;;;;;5114018;23;19916;-84
2023/12/17 02:29:07;;;;;;;;;;;9.40;85.70;;;;;;5116237;23;20522;-86
2023/12/17 02:31:07;;;;;;;;;;;9.30;85.70;;;;;;5117116;23;19904;-83
2023/12/17 02:33:08;;;;;;;;;;;9.40;85.70;;;;;;5090478;23;19908;-83
2023/12/17 02:35:29;;;;;;;;;;;9.40;85.70;;;;;;5114371;23;19909;-82
2023/12/17 02:37:49;;;;;;;;;;;9.40;85.70;;;;;;5113189;23;20246;-84
2023/12/17 02:40:10;;;;;;;;;;;9.40;85.70;;;;;;5115852;23;19912;-83
2023/12/17 02:42:30;;;;;;;;;;;9.40;85.60;;;;;;5095242;23;19971;-85
2023/12/17 02:44:51;;;;;;;;;;;9.30;85.60;;;;;;5095705;23;19911;-84
2023/12/17 02:47:11;;;;;;;;;;;9.40;85.50;;;;;;5099059;23;19904;-82
2023/12/17 02:49:33;;;;;;;;;;;9.40;85.60;;;;;;5117145;23;19936;-85
2023/12/17 02:51:55;;;;;;;;;;;9.30;85.50;;;;;;5141292;23;19944;-84
2023/12/17 02:54:15;;;;;;;;;;;9.40;85.60;;;;;;5120320;23;19893;-86
2023/12/17 02:56:39;;;;;;;;;;;9.30;85.50;;;;;;5119885;23;19892;-86
2023/12/17 02:58:59;;;;;;;;;;;9.30;85.50;;;;;;5139985;23;19923;-85
2023/12/17 03:01:20;;;;;;;;;;;9.30;85.50;;;;;;5141189;23;19893;-83
2023/12/17 03:03:31;;;;;;;;;;;9.30;85.40;;;;;;5141662;23;19897;-87
2023/12/17 03:05:31;;;;;;;;;;;9.30;85.60;;;;;;5115752;23;19916;-85
2023/12/17 03:07:32;;;;;;;;;;;9.30;85.60;;;;;;5140113;23;19893;-85
2023/12/17 03:09:33;;;;;;;;;;;9.30;85.60;;;;;;5140456;23;19916;-87
2023/12/17 03:11:36;;;;;;;;;;;9.30;85.50;;;;;;5112687;23;19896;-87
2023/12/17 03:13:40;;;;;;;;;;;9.40;85.60;;;;;;5089023;23;20077;-84
2023/12/17 03:16:01;;;;;;;;;;;9.40;85.60;;;;;;5127678;23;19940;-85
2023/12/17 03:18:21;;;;;;;;;;;9.40;85.60;;;;;;5095158;23;19909;-85
2023/12/17 03:20:42;;;;;;;;;;;9.30;85.50;;;;;;5095827;23;19913;-84
2023/12/17 03:23:02;;;;;;;;;;;9.40;85.50;;;;;;5117091;23;19908;-84
2023/12/17 03:25:23;;;;;;;;;;;9.30;85.50;;;;;;5117046;23;19911;-85
2023/12/17 03:27:44;;;;;;;;;;;9.30;85.40;;;;;;5116231;23;19935;-83
2023/12/17 03:30:06;;;;;;;;;;;9.30;85.40;;;;;;5093974;23;19913;-86
2023/12/17 03:32:26;;;;;;;;;;;9.30;85.40;;;;;;5115138;23;20030;-85
2023/12/17 03:34:47;;;;;;;;;;;9.30;85.50;;;;;;5092811;23;19939;-84
2023/12/17 03:37:08;;;;;;;;;;;9.30;85.50;;;;;;5114808;23;19908;-84
2023/12/17 03:39:08;;;;;;;;;;;9.30;85.40;;;;;;5113985;23;19908;-85
2023/12/17 03:41:22;;;;;;;;;;;9.20;85.40;;;;;;5112420;23;19979;-85
2023/12/17 03:43:22;;;;;;;;;;;9.30;85.50;;;;;;5113836;23;19908;-83
2023/12/17 03:45:23;;;;;;;;;;;9.30;85.40;;;;;;5086456;23;20466;-84
2023/12/17 03:47:25;;;;;;;;;;;9.30;85.40;;;;;;5086595;23;20430;-84
2023/12/17 03:49:45;;;;;;;;;;;9.30;85.40;;;;;;5113526;23;20442;-85
2023/12/17 03:52:06;;;;;;;;;;;9.30;85.40;;;;;;5113947;23;19908;-84
2023/12/17 03:54:08;;;;;;;;;;;9.30;85.40;;;;;;5087608;23;19911;-84
2023/12/17 03:56:28;;;;;;;;;;;9.30;85.40;;;;;;5092313;23;19909;-82
2023/12/17 03:58:49;;;;;;;;;;;9.30;85.40;;;;;;5112892;23;19918;-83
2023/12/17 04:01:10;;;;;;;;;;;9.20;85.40;;;;;;5111390;23;19991;-85
2023/12/17 04:03:30;;;;;;;;;;;9.20;85.40;;;;;;5113040;23;19927;-83
2023/12/17 04:05:51;;;;;;;;;;;9.20;85.40;;;;;;5113092;23;19908;-85
2023/12/17 04:08:11;;;;;;;;;;;9.20;85.50;;;;;;5112330;23;19904;-83
2023/12/17 04:10:33;;;;;;;;;;;9.30;85.50;;;;;;5114649;23;19915;-84
2023/12/17 04:12:53;;;;;;;;;;;9.40;86.30;;;;;;5114095;23;19909;-83
2023/12/17 04:15:15;;;;;;;;;;;9.30;85.50;;;;;;5112818;23;20085;-84
2023/12/17 04:17:35;;;;;;;;;;;9.20;85.50;;;;;;5111265;23;19904;-84
2023/12/17 04:19:37;;;;;;;;;;;9.20;85.50;;;;;;5086412;23;20341;-85
2023/12/17 04:21:38;;;;;;;;;;;9.20;85.50;;;;;;5111445;23;19955;-84
2023/12/17 04:23:39;;;;;;;;;;;9.20;85.60;;;;;;5114078;23;19912;-84
2023/12/17 04:25:41;;;;;;;;;;;9.20;85.50;;;;;;5061891;23;19909;-84
2023/12/17 04:27:50;;;;;;;;;;;9.20;85.50;;;;;;5088304;23;20004;-86
2023/12/17 04:30:11;;;;;;;;;;;9.20;85.50;;;;;;5113295;23;19904;-85
2023/12/17 04:32:31;;;;;;;;;;;9.20;85.50;;;;;;5111813;23;19908;-86
2023/12/17 04:34:55;;;;;;;;;;;9.30;85.50;;;;;;5091126;23;19908;-83
2023/12/17 04:37:16;;;;;;;;;;;9.30;85.50;;;;;;5112981;23;19912;-83
2023/12/17 04:39:36;;;;;;;;;;;9.30;85.60;;;;;;5090685;23;19915;-83
2023/12/17 04:41:56;;;;;;;;;;;9.20;85.60;;;;;;5090578;23;19911;-83
2023/12/17 04:44:17;;;;;;;;;;;9.30;85.60;;;;;;5091647;23;19963;-83
2023/12/17 04:46:38;;;;;;;;;;;9.20;85.50;;;;;;5111230;23;19943;-83
2023/12/17 04:48:58;;;;;;;;;;;9.20;85.50;;;;;;5113858;23;19918;-83
2023/12/17 04:51:19;;;;;;;;;;;9.30;85.60;;;;;;5111964;23;19905;-84
2023/12/17 04:53:38;;;;;;;;;;;9.30;85.60;;;;;;5109807;23;19966;-83
2023/12/17 04:55:39;;;;;;;;;;;9.30;85.50;;;;;;5111920;23;19948;-84
2023/12/17 04:57:40;;;;;;;;;;;9.20;85.50;;;;;;5121401;23;19938;-86
2023/12/17 05:00:02;;;;;;;;;;;9.30;85.50;;;;;;5113965;23;19944;-83
2023/12/17 05:02:23;;;;;;;;;;;9.30;85.50;;;;;;5113676;23;19932;-82
2023/12/17 05:04:44;;;;;;;;;;;9.30;85.50;;;;;;5113670;23;19912;-85
2023/12/17 05:07:04;;;;;;;;;;;9.30;85.50;;;;;;5113835;23;19959;-83
2023/12/17 05:09:25;;;;;;;;;;;9.30;85.50;;;;;;5113164;23;19987;-85
2023/12/17 05:11:27;;;;;;;;;;;9.30;85.40;;;;;;5086624;23;20328;-84
2023/12/17 05:13:32;;;;;;;;;;;9.30;85.50;;;;;;5135055;23;19908;-85
2023/12/17 05:15:52;;;;;;;;;;;9.40;85.50;;;;;;5110901;23;20248;-84
2023/12/17 05:18:13;;;;;;;;;;;9.20;85.40;;;;;;5113559;23;19911;-83
2023/12/17 05:20:33;;;;;;;;;;;9.30;85.30;;;;;;5113513;23;19951;-83
2023/12/17 05:22:54;;;;;;;;;;;9.20;85.30;;;;;;5111787;23;19946;-83
2023/12/17 05:25:14;;;;;;;;;;;9.20;85.30;;;;;;5110730;23;19917;-83
2023/12/17 05:27:36;;;;;;;;;;;9.20;85.30;;;;;;5111314;23;19908;-84
2023/12/17 05:29:57;;;;;;;;;;;9.20;85.40;;;;;;5114045;23;19988;-84
2023/12/17 05:32:17;;;;;;;;;;;9.20;86.10;;;;;;5114164;23;19907;-84
2023/12/17 05:34:38;;;;;;;;;;;9.20;85.40;;;;;;5134847;23;19900;-84
2023/12/17 05:36:59;;;;;;;;;;;9.20;85.20;;;;;;5115393;23;19904;-82
2023/12/17 05:39:19;;;;;;;;;;;9.30;85.30;;;;;;5113331;23;19901;-84
2023/12/17 05:41:40;;;;;;;;;;;9.20;85.20;;;;;;5112531;23;19992;-84
2023/12/17 05:44:00;;;;;;;;;;;9.20;85.20;;;;;;5114885;23;19934;-84
2023/12/17 05:46:21;;;;;;;;;;;9.20;85.20;;;;;;5115185;23;19955;-82
2023/12/17 05:48:41;;;;;;;;;;;9.30;86.00;;;;;;5113893;23;19971;-83
2023/12/17 05:51:02;;;;;;;;;;;9.20;85.20;;;;;;5110739;23;19908;-84
2023/12/17 05:53:02;;;;;;;;;;;9.20;85.30;;;;;;5113574;23;19904;-83
2023/12/17 05:55:23;;;;;;;;;;;9.10;85.10;;;;;;5113161;23;19979;-85
2023/12/17 05:57:34;;;;;;;;;;;9.10;85.10;;;;;;5113562;23;19916;-84
2023/12/17 05:59:55;;;;;;;;;;;9.10;85.20;;;;;;5133234;23;19907;-82
2023/12/17 06:02:15;;;;;;;;;;;9.10;85.10;;;;;;5112344;23;19904;-84
2023/12/17 06:04:36;;;;;;;;;;;9.10;85.20;;;;;;5114757;23;19910;-83
2023/12/17 06:06:57;;;;;;;;;;;9.10;85.30;;;;;;5115166;23;19966;-84
2023/12/17 06:09:18;;;;;;;;;;;9.10;85.20;;;;;;5111590;23;19908;-84
2023/12/17 06:11:38;;;;;;;;;;;9.00;85.30;;;;;;5113020;23;19904;-83
2023/12/17 06:13:45;;;;;;;;;;;9.10;85.30;;;;;;5111331;23;19915;-85
2023/12/17 06:15:46;;;;;;;;;;;9.00;85.40;;;;;;5114765;23;20492;-82
2023/12/17 06:17:46;;;;;;;;;;;9.00;85.30;;;;;;5114851;23;19905;-84
2023/12/17 06:19:47;;;;;;;;;;;9.10;85.50;;;;;;5113347;23;19915;-84
2023/12/17 06:21:47;;;;;;;;;;;9.00;85.50;;;;;;5114142;23;19919;-83
2023/12/17 06:23:48;;;;;;;;;;;9.10;85.50;;;;;;5111966;23;19912;-85
2023/12/17 06:25:48;;;;;;;;;;;9.00;85.40;;;;;;5111382;23;20047;-84
2023/12/17 06:28:09;;;;;;;;;;;9.00;85.40;;;;;;5113192;23;19908;-84
2023/12/17 06:30:30;;;;;;;;;;;9.00;85.50;;;;;;5113696;23;20018;-84
2023/12/17 06:32:31;;;;;;;;;;;9.00;85.50;;;;;;5113378;23;19905;-85
2023/12/17 06:34:51;;;;;;;;;;;9.10;85.50;;;;;;5115276;23;19938;-82
2023/12/17 06:37:12;;;;;;;;;;;9.10;85.60;;;;;;5111618;23;19915;-85
2023/12/17 06:39:33;;;;;;;;;;;9.00;85.50;;;;;;5113883;23;19908;-82
2023/12/17 06:41:53;;;;;;;;;;;9.00;85.50;;;;;;5113964;23;19908;-83
2023/12/17 06:44:14;;;;;;;;;;;9.10;85.60;;;;;;5113197;23;19919;-82
2023/12/17 06:46:35;;;;;;;;;;;9.00;85.50;;;;;;5113396;23;19904;-83
2023/12/17 06:48:56;;;;;;;;;;;9.00;85.50;;;;;;5112949;23;19908;-83
2023/12/17 06:51:16;;;;;;;;;;;9.00;85.60;;;;;;5114263;23;19979;-82
2023/12/17 06:53:17;;;;;;;;;;;9.00;85.50;;;;;;5113852;23;19908;-84
2023/12/17 06:55:17;;;;;;;;;;;9.00;85.60;;;;;;5087759;23;19996;-85
2023/12/17 06:57:18;;;;;;;;;;;9.10;85.60;;;;;;5135202;23;19908;-85
2023/12/17 06:59:18;;;;;;;;;;;9.10;85.60;;;;;;5113255;23;19939;-85
2023/12/17 07:01:19;;;;;;;;;;;9.10;85.60;;;;;;5110840;23;19914;-85
2023/12/17 07:03:20;;;;;;;;;;;9.00;85.50;;;;;;5112326;23;19904;-83
2023/12/17 07:05:20;;;;;;;;;;;9.00;85.50;;;;;;5114444;23;20682;-82
2023/12/17 07:07:21;;;;;;;;;;;9.00;85.50;;;;;;5113067;23;19971;-84
2023/12/17 07:09:22;;;;;;;;;;;9.00;85.50;;;;;;5112380;23;19939;-84
2023/12/17 07:11:22;;;;;;;;;;;9.00;85.60;;;;;;5113817;23;19915;-83
2023/12/17 07:13:23;;;;;;;;;;;9.10;85.60;;;;;;5113243;23;19909;-83
2023/12/17 07:15:23;;;;;;;;;;;9.00;86.30;;;;;;5113220;23;19920;-85
2023/12/17 07:17:24;;;;;;;;;;;9.00;85.50;;;;;;5087620;23;19909;-83
2023/12/17 07:19:24;;;;;;;;;;;9.00;85.50;;;;;;5114183;23;19912;-85
2023/12/17 07:21:25;;;;;;;;;;;9.00;85.50;;;;;;5112983;23;20002;-83
2023/12/17 07:23:27;;;;;;;;;;;9.00;85.50;;;;;;5114508;23;19912;-83
2023/12/17 07:25:27;;;;;;;;;;;9.00;85.50;;;;;;5113603;23;20006;-84
2023/12/17 07:27:28;;;;;;;;;;;9.00;85.50;;;;;;5111168;23;19916;-83
2023/12/17 07:29:29;;;;;;;;;;;9.00;85.50;;;;;;5113468;23;19954;-85
2023/12/17 07:31:49;;;;;;;;;;;9.00;85.60;;;;;;5113968;23;19904;-85
2023/12/17 07:34:10;;;;;;;;;;;8.90;85.50;;;;;;5113504;23;19904;-84
2023/12/17 07:36:30;;;;;;;;;;;9.00;85.60;;;;;;5112701;23;19915;-84
2023/12/17 07:38:51;;;;;;;;;;;9.10;85.70;;;;;;5111924;23;19935;-85
2023/12/17 07:41:12;;;;;;;;;;;9.00;85.60;;;;;;5133231;23;19915;-83
2023/12/17 07:43:34;;;;;;;;;;;9.00;85.60;;;;;;5113780;23;19911;-84
2023/12/17 07:45:55;;;;;;;;;;;8.90;85.50;;;;;;5114131;23;19991;-85
2023/12/17 07:47:55;;;;;;;;;;;9.00;85.50;;;;;;5085751;23;19909;-84
2023/12/17 07:49:57;;;;;;;;;;;9.00;85.50;;;;;;5111151;23;20431;-85
2023/12/17 07:51:57;;;;;;;;;;;9.00;85.50;;;;;;5111884;23;19908;-84
2023/12/17 07:53:58;;;;;;;;;;;9.00;85.50;;;;;;5136537;23;19954;-84
2023/12/17 07:55:59;;;;;;;;;;;9.00;85.50;;;;;;5114123;23;19912;-84
2023/12/17 07:58:00;;;;;;;;;;;9.00;85.60;;;;;;5113265;23;19923;-84
2023/12/17 08:00:01;;;;;;;;;;;9.00;85.50;;;;;;5087688;23;19916;-86
2023/12/17 08:02:02;;;;;;;;;;;8.90;85.40;;;;;;5113992;23;20507;-84
2023/12/17 08:04:03;;;;;;;;;;;8.90;85.40;;;;;;5113935;23;20244;-85
2023/12/17 08:06:03;;;;;;;;;;;9.00;85.50;;;;;;5089300;23;19904;-85
2023/12/17 08:08:04;;;;;;;;;;;9.00;85.40;;;;;;5088203;23;19908;-84
2023/12/17 08:10:06;;;;;;;;;;;9.00;85.50;;;;;;5115194;23;19908;-84
2023/12/17 08:12:07;;;;;;;;;;;9.00;85.50;;;;;;5113418;23;19959;-84
2023/12/17 08:14:07;;;;;;;;;;;9.00;85.40;;;;;;5114734;23;19915;-85
2023/12/17 08:16:08;;;;;;;;;;;9.00;85.40;;;;;;5114800;23;19908;-84
2023/12/17 08:18:09;;;;;;;;;;;9.00;85.40;;;;;;5113173;23;19915;-84
2023/12/17 08:20:09;;;;;;;;;;;9.00;85.40;;;;;;5113399;23;20321;-84
2023/12/17 08:22:10;;;;;;;;;;;9.00;85.30;;;;;;5113134;23;19959;-84
2023/12/17 08:24:11;;;;;;;;;;;9.00;85.30;;;;;;5087721;23;19909;-84
2023/12/17 08:26:11;;;;;;;;;;;9.10;85.30;;;;;;5112832;23;20568;-83
2023/12/17 08:28:12;;;;;;;;;;;8.90;85.20;;;;;;5087207;23;20360;-84
2023/12/17 08:30:13;;;;;;;;;;;9.00;86.00;;;;;;5088231;23;19905;-85
2023/12/17 08:32:14;;;;;;;;;;;9.00;85.20;;;;;;5113774;23;19912;-85
2023/12/17 08:34:15;;;;;;;;;;;9.10;85.30;;;;;;5114912;23;19908;-84
2023/12/17 08:36:16;;;;;;;;;;;9.00;85.10;;;;;;5112715;23;19915;-85
2023/12/17 08:38:17;;;;;;;;;;;9.10;85.20;;;;;;5111657;23;19924;-85
2023/12/17 08:40:19;;;;;;;;;;;9.00;85.20;;;;;;5088408;23;19932;-85
2023/12/17 08:42:20;;;;;;;;;;;9.00;85.20;;;;;;5089328;23;19920;-85
2023/12/17 08:44:22;;;;;;;;;;;9.00;85.10;;;;;;5113923;23;20492;-84
2023/12/17 08:46:23;;;;;;;;;;;9.00;85.20;;;;;;5114868;23;19908;-85
2023/12/17 08:48:23;;;;;;;;;;;9.00;85.10;;;;;;5113943;23;19915;-85
2023/12/17 08:50:24;;;;;;;;;;;9.00;85.20;;;;;;5114858;23;19919;-83
2023/12/17 08:52:26;;;;;;;;;;;9.00;85.20;;;;;;5114474;23;19908;-84
2023/12/17 08:54:27;;;;;;;;;;;9.10;85.30;;;;;;5114348;23;19926;-84
2023/12/17 08:56:28;;;;;;;;;;;9.00;85.20;;;;;;5088009;23;19916;-85
2023/12/17 08:58:29;;;;;;;;;;;9.00;85.30;;;;;;5108257;23;19994;-84
2023/12/17 09:00:29;;;;;;;;;;;9.10;85.40;;;;;;5138616;23;19912;-84
2023/12/17 09:02:31;;;;;;;;;;;9.00;85.30;;;;;;5138015;23;20014;-85
2023/12/17 09:04:32;;;;;;;;;;;9.00;85.30;;;;;;5112499;23;19928;-85
2023/12/17 09:06:40;;;;;;;;;;;9.00;85.30;;;;;;5114324;23;19931;-85
2023/12/17 09:08:41;;;;;;;;;;;9.00;85.30;;;;;;5109655;23;19971;-85
2023/12/17 09:10:41;;;;;;;;;;;9.10;85.40;;;;;;5136653;23;19923;-84
2023/12/17 09:12:42;;;;;;;;;;;9.00;85.40;;;;;;5112225;23;19909;-83
2023/12/17 09:14:43;;;;;;;;;;;9.10;85.50;;;;;;5085685;23;19960;-84
2023/12/17 09:16:44;;;;;;;;;;;9.00;86.10;;;;;;5111720;23;19909;-86
2023/12/17 09:18:47;;;;;;;;;;;9.10;85.50;;;;;;5113197;23;20002;-86
2023/12/17 09:20:48;;;;;;;;;;;9.00;85.70;;;;;;5110097;23;19908;-85
2023/12/17 09:22:52;;;;;;;;;;;9.00;85.60;;;;;;5138167;23;19931;-86
2023/12/17 09:25:13;;;;;;;;;;;9.00;85.70;;;;;;5114110;23;19904;-85
2023/12/17 09:27:15;;;;;;;;;;;9.00;85.70;;;;;;5087361;23;19909;-84
2023/12/17 09:29:35;;;;;;;;;;;9.10;85.90;;;;;;5113277;23;19908;-87
2023/12/17 09:31:56;;;;;;;;;;;9.10;85.80;;;;;;5113827;23;19908;-85
2023/12/17 09:34:16;;;;;;;;;;;9.00;86.60;;;;;;5114779;23;19983;-85
2023/12/17 09:36:37;;;;;;;;;;;9.10;85.90;;;;;;5112982;23;19946;-85
2023/12/17 09:38:57;;;;;;;;;;;9.10;85.90;;;;;;5111939;23;19900;-85
2023/12/17 09:41:19;;;;;;;;;;;9.10;86.00;;;;;;5112839;23;19911;-86
2023/12/17 09:43:24;;;;;;;;;;;9.10;86.00;;;;;;5092512;23;19916;-86
2023/12/17 09:45:26;;;;;;;;;;;9.10;85.90;;;;;;5112694;23;19963;-83
2023/12/17 09:47:26;;;;;;;;;;;9.00;86.00;;;;;;5137379;23;19907;-86
2023/12/17 09:49:27;;;;;;;;;;;9.00;86.00;;;;;;5112869;23;19909;-85
2023/12/17 09:51:28;;;;;;;;;;;9.10;86.10;;;;;;5111963;23;19905;-85
2023/12/17 09:53:30;;;;;;;;;;;9.10;86.10;;;;;;5113903;23;19912;-83
2023/12/17 09:55:30;;;;;;;;;;;9.10;86.10;;;;;;5087780;23;19911;-84
2023/12/17 09:57:31;;;;;;;;;;;9.00;85.80;;;;;;5135345;23;20375;-86
2023/12/17 09:59:32;;;;;;;;;;;9.10;86.10;;;;;;5086842;23;20268;-87
2023/12/17 10:01:33;;;;;;;;;;;9.00;86.00;;;;;;5112652;23;19983;-85
2023/12/17 10:03:33;;;;;;;;;;;9.00;86.00;;;;;;5113361;23;19904;-86
2023/12/17 10:05:34;;;;;;;;;;;9.00;86.10;;;;;;5112467;23;20346;-84
2023/12/17 10:07:36;;;;;;;;;;;9.00;86.20;;;;;;5111696;23;19912;-85
2023/12/17 10:09:37;;;;;;;;;;;9.00;86.10;;;;;;5114497;23;19905;-86
2023/12/17 10:11:39;;;;;;;;;;;9.00;86.00;;;;;;5089425;23;19905;-85
2023/12/17 10:13:40;;;;;;;;;;;9.00;86.00;;;;;;5110431;23;20155;-84
2023/12/17 10:15:42;;;;;;;;;;;8.90;85.90;;;;;;5112768;23;19908;-86
2023/12/17 10:17:43;;;;;;;;;;;8.90;86.00;;;;;;5111545;23;19908;-84
2023/12/17 10:19:48;;;;;;;;;;;8.90;86.10;;;;;;5089193;23;19919;-84
2023/12/17 10:21:49;;;;;;;;;;;8.90;86.10;;;;;;5113200;23;19912;-85
2023/12/17 10:24:10;;;;;;;;;;;9.00;86.00;;;;;;5114459;23;19904;-84
2023/12/17 10:26:43;;;;;;;;;;;9.00;86.10;;;;;;5114589;23;19912;-85
2023/12/17 10:29:04;;;;;;;;;;;8.90;86.30;;;;;;5114160;23;19912;-84
2023/12/17 10:31:26;;;;;;;;;;;8.90;86.30;;;;;;5113574;23;20223;-85
2023/12/17 10:33:52;;;;;;;;;;;8.90;86.20;;;;;;5114500;23;19912;-83
2023/12/17 10:36:13;;;;;;;;;;;8.90;86.30;;;;;;5114036;23;19905;-83
2023/12/17 10:38:34;;;;;;;;;;;8.90;86.30;;;;;;5116333;23;19915;-86
2023/12/17 10:40:56;;;;;;;;;;;8.90;86.40;;;;;;5115448;23;19912;-85
2023/12/17 10:43:17;;;;;;;;;;;8.80;86.30;;;;;;5114574;23;19984;-85
2023/12/17 10:45:37;;;;;;;;;;;8.80;86.50;;;;;;5116851;23;19904;-86
2023/12/17 10:47:58;;;;;;;;;;;8.80;86.30;;;;;;5119379;23;19911;-87
2023/12/17 10:50:19;;;;;;;;;;;8.80;86.50;;;;;;5116168;23;19983;-86
2023/12/17 10:52:40;;;;;;;;;;;8.80;86.40;;;;;;5116370;23;19916;-85
2023/12/17 10:55:01;;;;;;;;;;;8.80;86.50;;;;;;5118618;23;19904;-86
2023/12/17 10:57:23;;;;;;;;;;;8.90;86.40;;;;;;5116261;23;19912;-86
2023/12/17 10:59:26;;;;;;;;;;;8.80;86.10;;;;;;5091755;23;19928;-86
2023/12/17 11:01:27;;;;;;;;;;;8.80;86.30;;;;;;5116177;23;19904;-85
2023/12/17 11:03:27;;;;;;;;;;;8.80;86.30;;;;;;5068538;23;20305;-86
2023/12/17 11:05:28;;;;;;;;;;;8.80;86.20;;;;;;5091494;23;19915;-85
2023/12/17 11:07:30;;;;;;;;;;;8.70;86.20;;;;;;5090641;23;19917;-85
2023/12/17 11:09:31;;;;;;;;;;;8.70;86.10;;;;;;5113601;23;20034;-85
2023/12/17 11:11:32;;;;;;;;;;;8.70;86.10;;;;;;5114214;23;19904;-89
2023/12/17 11:13:33;;;;;;;;;;;8.70;86.10;;;;;;5117639;23;19911;-86
2023/12/17 11:15:34;;;;;;;;;;;8.80;86.10;;;;;;5113566;23;20344;-84
2023/12/17 11:17:36;;;;;;;;;;;8.70;86.10;;;;;;5089499;23;19913;-85
2023/12/17 11:19:51;;;;;;;;;;;8.70;86.10;;;;;;5091128;23;19972;-86
2023/12/17 11:21:52;;;;;;;;;;;8.80;86.20;;;;;;5090447;23;20416;-86
2023/12/17 11:23:52;;;;;;;;;;;8.70;86.10;;;;;;5088116;23;19915;-86
2023/12/17 11:25:53;;;;;;;;;;;8.70;86.10;;;;;;5063161;23;19909;-86
2023/12/17 11:27:54;;;;;;;;;;;8.70;86.10;;;;;;5111974;23;19940;-86
2023/12/17 11:29:55;;;;;;;;;;;8.60;86.00;;;;;;5113043;23;20343;-86
2023/12/17 11:31:56;;;;;;;;;;;8.60;86.00;;;;;;5088393;23;19911;-86
2023/12/17 11:33:56;;;;;;;;;;;8.60;86.00;;;;;;5087409;23;20502;-86
2023/12/17 11:35:57;;;;;;;;;;;8.70;86.10;;;;;;5107125;23;20351;-84
2023/12/17 11:37:58;;;;;;;;;;;8.60;86.00;;;;;;5108966;23;19915;-85
2023/12/17 11:40:02;;;;;;;;;;;8.60;86.10;;;;;;5085005;23;19909;-86
2023/12/17 11:42:25;;;;;;;;;;;8.50;86.10;;;;;;5089268;23;19908;-85
2023/12/17 11:44:27;;;;;;;;;;;8.50;86.10;;;;;;5086124;23;19909;-85
2023/12/17 11:46:51;;;;;;;;;;;8.50;86.20;;;;;;5108720;23;20731;-85
2023/12/17 11:49:11;;;;;;;;;;;8.50;86.30;;;;;;5090386;23;20016;-85
2023/12/17 11:51:33;;;;;;;;;;;8.50;86.30;;;;;;5110963;23;19908;-84
2023/12/17 11:53:54;;;;;;;;;;;8.60;86.40;;;;;;5091092;23;19912;-87
2023/12/17 11:56:14;;;;;;;;;;;8.50;86.40;;;;;;5090895;23;19912;-85
2023/12/17 11:58:17;;;;;;;;;;;8.50;86.40;;;;;;5103363;23;19916;-85
2023/12/17 12:00:38;;;;;;;;;;;8.50;86.20;;;;;;5112813;23;19904;-85
2023/12/17 12:02:58;;;;;;;;;;;8.40;86.50;;;;;;5112215;23;19936;-87
2023/12/17 12:05:19;;;;;;;;;;;8.40;86.40;;;;;;5112021;23;19908;-86
2023/12/17 12:07:39;;;;;;;;;;;8.50;86.50;;;;;;5112297;23;20088;-85
2023/12/17 12:10:07;;;;;;;;;;;8.40;86.60;;;;;;5111679;23;19915;-87
2023/12/17 12:12:33;;;;;;;;;;;8.40;86.60;;;;;;5113966;23;19901;-84
2023/12/17 12:14:53;;;;;;;;;;;8.40;86.40;;;;;;5111475;23;19914;-87
2023/12/17 12:17:33;;;;;;;;;;;8.40;86.50;;;;;;5112845;23;19908;-86
2023/12/17 12:19:53;;;;;;;;;;;8.40;86.50;;;;;;5112742;23;19936;-85
2023/12/17 12:22:14;;;;;;;;;;;8.40;86.70;;;;;;5112490;23;19908;-85
2023/12/17 12:24:36;;;;;;;;;;;8.40;86.50;;;;;;5106316;23;19919;-87
2023/12/17 12:26:56;;;;;;;;;;;8.40;86.60;;;;;;5111559;23;19908;-87
2023/12/17 12:29:17;;;;;;;;;;;8.40;86.40;;;;;;5109806;23;19908;-84
2023/12/17 12:31:38;;;;;;;;;;;8.40;86.50;;;;;;5109526;23;19931;-85
2023/12/17 12:34:00;;;;;;;;;;;8.40;86.40;;;;;;5111490;23;19923;-87
2023/12/17 12:36:20;;;;;;;;;;;8.40;86.40;;;;;;5108199;23;20638;-87
2023/12/17 12:38:41;;;;;;;;;;;8.50;86.40;;;;;;5111979;23;20340;-84
2023/12/17 12:41:08;;;;;;;;;;;8.40;86.20;;;;;;5111701;23;19919;-86
2023/12/17 12:43:29;;;;;;;;;;;8.40;86.20;;;;;;5113029;23;19908;-84
2023/12/17 12:45:58;;;;;;;;;;;8.40;86.10;;;;;;5110670;23;19951;-85
2023/12/17 12:48:20;;;;;;;;;;;8.40;86.80;;;;;;5111409;23;20487;-85
2023/12/17 12:50:40;;;;;;;;;;;8.40;86.00;;;;;;5113088;23;19911;-85
2023/12/17 12:52:56;;;;;;;;;;;8.50;85.90;;;;;;5133813;23;19908;-85
2023/12/17 12:55:16;;;;;;;;;;;8.40;85.80;;;;;;5109589;23;20181;-85
2023/12/17 12:57:37;;;;;;;;;;;8.40;85.70;;;;;;5112160;23;19916;-86
2023/12/17 12:59:58;;;;;;;;;;;8.40;85.70;;;;;;5109990;23;19916;-86
2023/12/17 13:02:18;;;;;;;;;;;8.50;85.70;;;;;;5091149;23;19909;-85